sensor_id;sensor_type;location;lat;lon;timestamp;pressure;altitude;pressure_sealevel;temperature;humidity
73624;BME280;61921;53.226;-1.296;2023-05-24T00:01:26;101420.55;;;12.71;73.99
73624;BME280;61921;53.226;-1.296;2023-05-24T00:03:52;101419.66;;;12.67;74.02
73624;BME280;61921;53.226;-1.296;2023-05-24T00:06:17;101421.07;;;12.65;74.29
73624;BME280;61921;53.226;-1.296;2023-05-24T00:08:43;101423.07;;;12.65;74.13
73624;BME280;61921;53.226;-1.296;2023-05-24T00:11:08;101424.46;;;12.61;74.30
73624;BME280;61921;53.226;-1.296;2023-05-24T00:13:33;101426.22;;;12.57;74.67
73624;BME280;61921;53.226;-1.296;2023-05-24T00:15:59;101427.77;;;12.59;74.58
73624;BME280;61921;53.226;-1.296;2023-05-24T00:18:24;101424.05;;;12.63;74.07
73624;BME280;61921;53.226;-1.296;2023-05-24T00:20:50;101423.62;;;12.62;73.60
73624;BME280;61921;53.226;-1.296;2023-05-24T00:23:15;101425.71;;;12.44;75.09
73624;BME280;61921;53.226;-1.296;2023-05-24T00:25:40;101422.80;;;12.25;76.54
73624;BME280;61921;53.226;-1.296;2023-05-24T00:28:06;101422.93;;;12.29;76.27
73624;BME280;61921;53.226;-1.296;2023-05-24T00:30:31;101417.38;;;12.16;76.79
73624;BME280;61921;53.226;-1.296;2023-05-24T00:32:56;101414.50;;;12.02;77.24
73624;BME280;61921;53.226;-1.296;2023-05-24T00:35:22;101417.27;;;11.84;77.79
73624;BME280;61921;53.226;-1.296;2023-05-24T00:37:47;101418.59;;;11.84;78.23
73624;BME280;61921;53.226;-1.296;2023-05-24T00:40:13;101412.45;;;11.77;78.73
73624;BME280;61921;53.226;-1.296;2023-05-24T00:42:38;101413.28;;;11.77;78.87
73624;BME280;61921;53.226;-1.296;2023-05-24T00:45:04;101408.68;;;11.90;78.28
73624;BME280;61921;53.226;-1.296;2023-05-24T00:47:29;101407.19;;;11.94;77.83
73624;BME280;61921;53.226;-1.296;2023-05-24T00:49:54;101405.90;;;11.91;78.03
73624;BME280;61921;53.226;-1.296;2023-05-24T00:52:21;101404.88;;;11.85;78.65
73624;BME280;61921;53.226;-1.296;2023-05-24T00:54:45;101407.43;;;11.92;78.30
73624;BME280;61921;53.226;-1.296;2023-05-24T00:57:11;101410.50;;;12.02;78.01
73624;BME280;61921;53.226;-1.296;2023-05-24T00:59:36;101414.13;;;11.99;78.37
73624;BME280;61921;53.226;-1.296;2023-05-24T01:02:01;101410.33;;;12.10;77.49
73624;BME280;61921;53.226;-1.296;2023-05-24T01:04:27;101405.52;;;12.08;77.42
73624;BME280;61921;53.226;-1.296;2023-05-24T01:07:03;101404.29;;;12.12;77.25
73624;BME280;61921;53.226;-1.296;2023-05-24T01:09:24;101405.68;;;12.11;77.03
73624;BME280;61921;53.226;-1.296;2023-05-24T01:11:52;101410.21;;;12.13;76.85
73624;BME280;61921;53.226;-1.296;2023-05-24T01:14:15;101407.19;;;12.08;76.92
73624;BME280;61921;53.226;-1.296;2023-05-24T01:16:38;101405.93;;;12.07;76.98
73624;BME280;61921;53.226;-1.296;2023-05-24T01:19:01;101408.38;;;11.65;79.18
73624;BME280;61921;53.226;-1.296;2023-05-24T01:21:36;101407.86;;;11.64;79.24
73624;BME280;61921;53.226;-1.296;2023-05-24T01:23:04;101406.53;;;11.32;81.36
73624;BME280;61921;53.226;-1.296;2023-05-24T01:25:31;101406.78;;;11.24;82.26
73624;BME280;61921;53.226;-1.296;2023-05-24T01:28:56;101402.44;;;11.43;81.14
73624;BME280;61921;53.226;-1.296;2023-05-24T01:31:21;101399.24;;;11.53;80.91
73624;BME280;61921;53.226;-1.296;2023-05-24T01:33:46;101399.91;;;11.49;81.17
73624;BME280;61921;53.226;-1.296;2023-05-24T01:36:11;101399.21;;;11.42;82.46
73624;BME280;61921;53.226;-1.296;2023-05-24T01:38:37;101401.39;;;11.59;82.48
73624;BME280;61921;53.226;-1.296;2023-05-24T01:41:08;101405.73;;;11.59;82.68
73624;BME280;61921;53.226;-1.296;2023-05-24T01:43:32;101406.49;;;11.87;81.20
73624;BME280;61921;53.226;-1.296;2023-05-24T01:46:00;101405.93;;;12.01;80.66
73624;BME280;61921;53.226;-1.296;2023-05-24T01:48:25;101405.88;;;12.12;79.91
73624;BME280;61921;53.226;-1.296;2023-05-24T01:50:48;101410.32;;;12.21;79.50
73624;BME280;61921;53.226;-1.296;2023-05-24T01:53:12;101413.94;;;12.22;79.97
73624;BME280;61921;53.226;-1.296;2023-05-24T01:55:36;101410.46;;;12.17;80.21
73624;BME280;61921;53.226;-1.296;2023-05-24T01:58:02;101408.16;;;12.20;80.35
73624;BME280;61921;53.226;-1.296;2023-05-24T02:00:26;101407.54;;;11.66;83.48
73624;BME280;61921;53.226;-1.296;2023-05-24T02:02:51;101403.19;;;11.45;85.16
73624;BME280;61921;53.226;-1.296;2023-05-24T02:05:17;101403.51;;;11.35;85.76
73624;BME280;61921;53.226;-1.296;2023-05-24T02:07:43;101405.34;;;11.35;86.20
73624;BME280;61921;53.226;-1.296;2023-05-24T02:10:08;101405.55;;;11.35;86.50
73624;BME280;61921;53.226;-1.296;2023-05-24T02:12:33;101401.58;;;11.42;85.88
73624;BME280;61921;53.226;-1.296;2023-05-24T02:14:59;101406.06;;;11.65;84.18
73624;BME280;61921;53.226;-1.296;2023-05-24T02:17:24;101407.11;;;11.53;85.39
73624;BME280;61921;53.226;-1.296;2023-05-24T02:19:49;101406.34;;;11.53;85.28
73624;BME280;61921;53.226;-1.296;2023-05-24T02:22:15;101412.01;;;11.65;84.69
73624;BME280;61921;53.226;-1.296;2023-05-24T02:24:40;101410.00;;;11.57;84.97
73624;BME280;61921;53.226;-1.296;2023-05-24T02:27:05;101414.72;;;11.61;84.71
73624;BME280;61921;53.226;-1.296;2023-05-24T02:29:30;101413.33;;;11.65;84.81
73624;BME280;61921;53.226;-1.296;2023-05-24T02:31:56;101415.13;;;11.38;86.14
73624;BME280;61921;53.226;-1.296;2023-05-24T02:34:22;101409.24;;;11.54;85.26
73624;BME280;61921;53.226;-1.296;2023-05-24T02:36:47;101414.16;;;11.36;86.88
73624;BME280;61921;53.226;-1.296;2023-05-24T02:39:13;101405.35;;;11.40;87.03
73624;BME280;61921;53.226;-1.296;2023-05-24T02:41:38;101402.29;;;11.58;86.43
73624;BME280;61921;53.226;-1.296;2023-05-24T02:44:04;101402.54;;;11.65;85.85
73624;BME280;61921;53.226;-1.296;2023-05-24T02:46:29;101397.15;;;11.80;85.22
73624;BME280;61921;53.226;-1.296;2023-05-24T02:48:54;101396.90;;;11.90;84.52
73624;BME280;61921;53.226;-1.296;2023-05-24T02:51:19;101395.99;;;12.03;83.34
73624;BME280;61921;53.226;-1.296;2023-05-24T02:53:45;101392.67;;;12.10;82.68
73624;BME280;61921;53.226;-1.296;2023-05-24T02:56:10;101392.33;;;12.10;82.96
73624;BME280;61921;53.226;-1.296;2023-05-24T02:58:35;101389.63;;;11.96;82.95
73624;BME280;61921;53.226;-1.296;2023-05-24T03:01:01;101386.40;;;12.09;82.21
73624;BME280;61921;53.226;-1.296;2023-05-24T03:03:26;101386.44;;;11.67;83.84
73624;BME280;61921;53.226;-1.296;2023-05-24T03:05:51;101387.81;;;11.46;85.09
73624;BME280;61921;53.226;-1.296;2023-05-24T03:08:17;101384.79;;;11.49;85.13
73624;BME280;61921;53.226;-1.296;2023-05-24T03:10:43;101381.85;;;11.66;84.41
73624;BME280;61921;53.226;-1.296;2023-05-24T03:13:08;101379.46;;;11.58;84.49
73624;BME280;61921;53.226;-1.296;2023-05-24T03:15:33;101386.93;;;11.62;84.84
73624;BME280;61921;53.226;-1.296;2023-05-24T03:18:00;101385.66;;;11.53;85.00
73624;BME280;61921;53.226;-1.296;2023-05-24T03:20:24;101387.71;;;11.49;84.66
73624;BME280;61921;53.226;-1.296;2023-05-24T03:22:49;101389.86;;;11.39;85.00
73624;BME280;61921;53.226;-1.296;2023-05-24T03:25:15;101395.10;;;11.29;85.99
73624;BME280;61921;53.226;-1.296;2023-05-24T03:27:40;101389.31;;;11.39;85.73
73624;BME280;61921;53.226;-1.296;2023-05-24T03:30:07;101388.49;;;11.39;86.47
73624;BME280;61921;53.226;-1.296;2023-05-24T03:32:32;101389.88;;;11.38;86.30
73624;BME280;61921;53.226;-1.296;2023-05-24T03:34:57;101391.87;;;11.35;86.83
73624;BME280;61921;53.226;-1.296;2023-05-24T03:37:22;101392.49;;;11.43;85.97
73624;BME280;61921;53.226;-1.296;2023-05-24T03:39:47;101385.52;;;11.51;84.92
73624;BME280;61921;53.226;-1.296;2023-05-24T03:42:13;101387.67;;;11.36;86.02
73624;BME280;61921;53.226;-1.296;2023-05-24T03:44:39;101386.26;;;11.22;85.66
73624;BME280;61921;53.226;-1.296;2023-05-24T03:47:04;101376.08;;;11.35;85.25
73624;BME280;61921;53.226;-1.296;2023-05-24T03:49:31;101367.19;;;11.34;84.55
73624;BME280;61921;53.226;-1.296;2023-05-24T03:51:55;101367.47;;;11.34;84.60
73624;BME280;61921;53.226;-1.296;2023-05-24T03:54:21;101366.53;;;11.40;83.81
73624;BME280;61921;53.226;-1.296;2023-05-24T03:56:46;101364.17;;;11.37;84.15
73624;BME280;61921;53.226;-1.296;2023-05-24T03:59:11;101367.52;;;11.40;83.77
73624;BME280;61921;53.226;-1.296;2023-05-24T04:01:37;101371.25;;;11.38;84.24
73624;BME280;61921;53.226;-1.296;2023-05-24T04:04:02;101365.34;;;11.39;83.54
73624;BME280;61921;53.226;-1.296;2023-05-24T04:06:27;101365.49;;;11.34;84.17
73624;BME280;61921;53.226;-1.296;2023-05-24T04:08:52;101362.54;;;11.17;86.08
73624;BME280;61921;53.226;-1.296;2023-05-24T04:11:17;101366.49;;;10.97;88.03
73624;BME280;61921;53.226;-1.296;2023-05-24T04:13:43;101369.88;;;10.88;87.75
73624;BME280;61921;53.226;-1.296;2023-05-24T04:16:08;101369.24;;;11.10;86.61
73624;BME280;61921;53.226;-1.296;2023-05-24T04:18:34;101363.12;;;11.21;85.63
73624;BME280;61921;53.226;-1.296;2023-05-24T04:21:00;101367.60;;;11.26;84.70
73624;BME280;61921;53.226;-1.296;2023-05-24T04:23:25;101378.75;;;11.14;85.67
73624;BME280;61921;53.226;-1.296;2023-05-24T04:25:50;101385.44;;;11.21;85.35
73624;BME280;61921;53.226;-1.296;2023-05-24T04:28:16;101387.16;;;11.20;85.10
73624;BME280;61921;53.226;-1.296;2023-05-24T04:30:41;101378.90;;;11.21;85.32
73624;BME280;61921;53.226;-1.296;2023-05-24T04:33:07;101380.07;;;11.07;85.93
73624;BME280;61921;53.226;-1.296;2023-05-24T04:35:32;101382.60;;;11.16;85.39
73624;BME280;61921;53.226;-1.296;2023-05-24T04:37:58;101386.36;;;11.18;85.49
73624;BME280;61921;53.226;-1.296;2023-05-24T04:40:23;101388.66;;;11.13;85.21
73624;BME280;61921;53.226;-1.296;2023-05-24T04:42:49;101391.33;;;11.17;85.46
73624;BME280;61921;53.226;-1.296;2023-05-24T04:45:14;101394.31;;;10.92;87.89
73624;BME280;61921;53.226;-1.296;2023-05-24T04:47:40;101392.84;;;11.06;87.06
73624;BME280;61921;53.226;-1.296;2023-05-24T04:50:06;101390.33;;;11.18;86.57
73624;BME280;61921;53.226;-1.296;2023-05-24T04:52:31;101387.35;;;11.25;85.82
73624;BME280;61921;53.226;-1.296;2023-05-24T04:54:56;101385.57;;;11.30;85.23
73624;BME280;61921;53.226;-1.296;2023-05-24T04:57:21;101391.46;;;11.19;86.06
73624;BME280;61921;53.226;-1.296;2023-05-24T04:59:46;101398.61;;;11.12;87.48
73624;BME280;61921;53.226;-1.296;2023-05-24T05:02:12;101405.70;;;11.16;87.77
73624;BME280;61921;53.226;-1.296;2023-05-24T05:04:38;101414.57;;;11.21;86.83
73624;BME280;61921;53.226;-1.296;2023-05-24T05:07:03;101415.62;;;11.31;86.60
73624;BME280;61921;53.226;-1.296;2023-05-24T05:09:28;101407.01;;;11.40;86.05
73624;BME280;61921;53.226;-1.296;2023-05-24T05:11:53;101405.12;;;11.51;85.52
73624;BME280;61921;53.226;-1.296;2023-05-24T05:14:18;101407.72;;;11.47;85.34
73624;BME280;61921;53.226;-1.296;2023-05-24T05:16:44;101407.35;;;11.49;85.58
73624;BME280;61921;53.226;-1.296;2023-05-24T05:19:09;101409.69;;;11.53;85.92
73624;BME280;61921;53.226;-1.296;2023-05-24T05:21:34;101405.42;;;11.43;86.40
73624;BME280;61921;53.226;-1.296;2023-05-24T05:24:01;101408.60;;;11.46;86.47
73624;BME280;61921;53.226;-1.296;2023-05-24T05:26:26;101418.61;;;11.62;85.86
73624;BME280;61921;53.226;-1.296;2023-05-24T05:28:50;101426.82;;;11.77;85.50
73624;BME280;61921;53.226;-1.296;2023-05-24T05:31:17;101425.48;;;11.75;86.11
73624;BME280;61921;53.226;-1.296;2023-05-24T05:33:41;101422.55;;;11.87;85.19
73624;BME280;61921;53.226;-1.296;2023-05-24T05:36:07;101422.38;;;11.93;84.88
73624;BME280;61921;53.226;-1.296;2023-05-24T05:38:32;101419.79;;;11.99;84.86
73624;BME280;61921;53.226;-1.296;2023-05-24T05:40:58;101417.80;;;12.08;84.36
73624;BME280;61921;53.226;-1.296;2023-05-24T05:43:24;101414.22;;;12.14;84.18
73624;BME280;61921;53.226;-1.296;2023-05-24T05:45:49;101413.31;;;12.18;84.04
73624;BME280;61921;53.226;-1.296;2023-05-24T05:48:14;101414.01;;;12.16;84.29
73624;BME280;61921;53.226;-1.296;2023-05-24T05:50:39;101414.62;;;11.96;85.09
73624;BME280;61921;53.226;-1.296;2023-05-24T05:53:04;101418.08;;;12.13;84.72
73624;BME280;61921;53.226;-1.296;2023-05-24T05:55:30;101422.79;;;12.28;84.47
73624;BME280;61921;53.226;-1.296;2023-05-24T05:57:55;101423.67;;;12.39;84.12
73624;BME280;61921;53.226;-1.296;2023-05-24T06:00:21;101420.72;;;12.54;83.31
73624;BME280;61921;53.226;-1.296;2023-05-24T06:02:46;101427.69;;;12.60;82.65
73624;BME280;61921;53.226;-1.296;2023-05-24T06:05:11;101430.65;;;12.29;84.24
73624;BME280;61921;53.226;-1.296;2023-05-24T06:07:36;101434.98;;;12.36;84.32
73624;BME280;61921;53.226;-1.296;2023-05-24T06:10:01;101436.78;;;12.67;83.22
73624;BME280;61921;53.226;-1.296;2023-05-24T06:12:27;101430.41;;;12.74;82.63
73624;BME280;61921;53.226;-1.296;2023-05-24T06:14:52;101426.97;;;12.67;83.84
73624;BME280;61921;53.226;-1.296;2023-05-24T06:17:18;101422.23;;;12.87;82.79
73624;BME280;61921;53.226;-1.296;2023-05-24T06:19:43;101428.66;;;12.83;83.74
73624;BME280;61921;53.226;-1.296;2023-05-24T06:22:09;101428.43;;;13.00;82.41
73624;BME280;61921;53.226;-1.296;2023-05-24T06:24:34;101425.33;;;13.12;81.70
73624;BME280;61921;53.226;-1.296;2023-05-24T06:27:00;101429.40;;;13.15;81.22
73624;BME280;61921;53.226;-1.296;2023-05-24T06:29:25;101427.64;;;12.67;82.69
73624;BME280;61921;53.226;-1.296;2023-05-24T06:31:50;101426.17;;;12.86;82.91
73624;BME280;61921;53.226;-1.296;2023-05-24T06:34:17;101425.90;;;12.61;83.42
73624;BME280;61921;53.226;-1.296;2023-05-24T06:36:41;101428.19;;;12.79;83.89
73624;BME280;61921;53.226;-1.296;2023-05-24T06:39:07;101432.72;;;12.89;83.23
73624;BME280;61921;53.226;-1.296;2023-05-24T06:41:32;101435.05;;;13.00;82.26
73624;BME280;61921;53.226;-1.296;2023-05-24T06:43:58;101436.64;;;13.22;80.66
73624;BME280;61921;53.226;-1.296;2023-05-24T06:46:23;101439.06;;;13.33;80.02
73624;BME280;61921;53.226;-1.296;2023-05-24T06:48:49;101439.68;;;13.26;80.33
73624;BME280;61921;53.226;-1.296;2023-05-24T06:51:14;101438.66;;;13.34;80.02
73624;BME280;61921;53.226;-1.296;2023-05-24T06:53:39;101440.26;;;13.58;79.73
73624;BME280;61921;53.226;-1.296;2023-05-24T06:56:05;101442.81;;;13.53;78.72
73624;BME280;61921;53.226;-1.296;2023-05-24T06:58:30;101444.67;;;13.73;77.74
73624;BME280;61921;53.226;-1.296;2023-05-24T07:00:55;101445.78;;;13.75;76.67
73624;BME280;61921;53.226;-1.296;2023-05-24T07:03:20;101444.97;;;13.97;76.43
73624;BME280;61921;53.226;-1.296;2023-05-24T07:05:46;101444.45;;;14.04;75.43
73624;BME280;61921;53.226;-1.296;2023-05-24T07:08:11;101441.79;;;14.04;75.80
73624;BME280;61921;53.226;-1.296;2023-05-24T07:10:36;101446.01;;;14.01;75.03
73624;BME280;61921;53.226;-1.296;2023-05-24T07:13:02;101445.78;;;13.83;75.38
73624;BME280;61921;53.226;-1.296;2023-05-24T07:15:27;101444.14;;;14.09;74.07
73624;BME280;61921;53.226;-1.296;2023-05-24T07:17:53;101451.91;;;14.60;71.85
73624;BME280;61921;53.226;-1.296;2023-05-24T07:20:18;101455.37;;;14.85;69.85
73624;BME280;61921;53.226;-1.296;2023-05-24T07:22:43;101453.94;;;15.81;67.06
73624;BME280;61921;53.226;-1.296;2023-05-24T07:25:09;101457.45;;;15.74;66.35
73624;BME280;61921;53.226;-1.296;2023-05-24T07:27:34;101460.78;;;16.42;64.52
73624;BME280;61921;53.226;-1.296;2023-05-24T07:30:00;101451.93;;;16.30;63.43
73624;BME280;61921;53.226;-1.296;2023-05-24T07:32:25;101450.88;;;16.54;63.31
73624;BME280;61921;53.226;-1.296;2023-05-24T07:34:51;101453.15;;;16.36;63.40
73624;BME280;61921;53.226;-1.296;2023-05-24T07:37:16;101453.43;;;16.97;61.75
73624;BME280;61921;53.226;-1.296;2023-05-24T07:39:41;101448.13;;;16.69;61.16
73624;BME280;61921;53.226;-1.296;2023-05-24T07:42:07;101447.73;;;16.59;60.92
73624;BME280;61921;53.226;-1.296;2023-05-24T07:44:32;101450.33;;;16.08;63.41
73624;BME280;61921;53.226;-1.296;2023-05-24T07:46:57;101447.89;;;16.91;62.22
73624;BME280;61921;53.226;-1.296;2023-05-24T07:49:22;101454.56;;;16.89;60.35
73624;BME280;61921;53.226;-1.296;2023-05-24T07:51:48;101463.64;;;16.94;59.67
73624;BME280;61921;53.226;-1.296;2023-05-24T07:54:13;101459.81;;;17.82;56.56
73624;BME280;61921;53.226;-1.296;2023-05-24T07:56:40;101456.06;;;17.03;58.03
73624;BME280;61921;53.226;-1.296;2023-05-24T07:59:04;101448.67;;;16.25;59.76
73624;BME280;61921;53.226;-1.296;2023-05-24T08:01:30;101448.37;;;16.76;59.09
73624;BME280;61921;53.226;-1.296;2023-05-24T08:03:55;101446.41;;;16.80;59.84
73624;BME280;61921;53.226;-1.296;2023-05-24T08:06:20;101444.12;;;18.00;56.24
73624;BME280;61921;53.226;-1.296;2023-05-24T08:08:46;101441.68;;;18.22;54.95
73624;BME280;61921;53.226;-1.296;2023-05-24T08:11:11;101443.64;;;17.79;54.94
73624;BME280;61921;53.226;-1.296;2023-05-24T08:13:36;101450.92;;;18.03;54.19
73624;BME280;61921;53.226;-1.296;2023-05-24T08:16:02;101449.61;;;17.55;53.68
73624;BME280;61921;53.226;-1.296;2023-05-24T08:18:27;101451.36;;;17.82;52.19
73624;BME280;61921;53.226;-1.296;2023-05-24T08:20:52;101451.66;;;17.58;52.60
73624;BME280;61921;53.226;-1.296;2023-05-24T08:23:17;101455.33;;;17.47;52.93
73624;BME280;61921;53.226;-1.296;2023-05-24T08:25:43;101461.97;;;18.05;52.29
73624;BME280;61921;53.226;-1.296;2023-05-24T08:28:08;101461.70;;;17.74;52.71
73624;BME280;61921;53.226;-1.296;2023-05-24T08:30:33;101464.14;;;17.86;52.65
73624;BME280;61921;53.226;-1.296;2023-05-24T08:33:00;101456.91;;;18.54;50.78
73624;BME280;61921;53.226;-1.296;2023-05-24T08:35:24;101463.33;;;17.99;51.80
73624;BME280;61921;53.226;-1.296;2023-05-24T08:37:49;101459.35;;;18.26;51.12
73624;BME280;61921;53.226;-1.296;2023-05-24T08:40:15;101458.68;;;18.83;50.84
73624;BME280;61921;53.226;-1.296;2023-05-24T08:42:40;101452.10;;;18.60;49.90
73624;BME280;61921;53.226;-1.296;2023-05-24T08:45:08;101454.55;;;17.89;49.96
73624;BME280;61921;53.226;-1.296;2023-05-24T08:47:31;101455.13;;;18.20;49.88
73624;BME280;61921;53.226;-1.296;2023-05-24T08:49:56;101460.88;;;18.51;49.30
73624;BME280;61921;53.226;-1.296;2023-05-24T08:52:21;101461.09;;;19.07;47.65
73624;BME280;61921;53.226;-1.296;2023-05-24T08:54:46;101460.17;;;19.11;47.20
73624;BME280;61921;53.226;-1.296;2023-05-24T08:57:11;101458.38;;;19.35;46.73
73624;BME280;61921;53.226;-1.296;2023-05-24T08:59:38;101451.31;;;20.29;44.26
73624;BME280;61921;53.226;-1.296;2023-05-24T09:02:02;101451.26;;;20.61;42.95
73624;BME280;61921;53.226;-1.296;2023-05-24T09:04:26;101454.37;;;20.92;43.39
73624;BME280;61921;53.226;-1.296;2023-05-24T09:06:52;101457.77;;;19.34;44.42
73624;BME280;61921;53.226;-1.296;2023-05-24T09:09:18;101459.70;;;18.86;45.22
73624;BME280;61921;53.226;-1.296;2023-05-24T09:11:42;101457.61;;;18.77;45.80
73624;BME280;61921;53.226;-1.296;2023-05-24T09:14:08;101451.62;;;18.95;46.61
73624;BME280;61921;53.226;-1.296;2023-05-24T09:16:33;101446.38;;;19.22;47.30
73624;BME280;61921;53.226;-1.296;2023-05-24T09:18:58;101443.07;;;19.81;44.12
73624;BME280;61921;53.226;-1.296;2023-05-24T09:21:24;101445.07;;;19.64;44.14
73624;BME280;61921;53.226;-1.296;2023-05-24T09:23:48;101448.29;;;19.42;44.17
73624;BME280;61921;53.226;-1.296;2023-05-24T09:26:14;101444.66;;;19.46;43.74
73624;BME280;61921;53.226;-1.296;2023-05-24T09:28:39;101442.23;;;19.60;43.76
73624;BME280;61921;53.226;-1.296;2023-05-24T09:31:05;101437.44;;;20.21;43.78
73624;BME280;61921;53.226;-1.296;2023-05-24T09:33:30;101438.58;;;20.25;42.56
73624;BME280;61921;53.226;-1.296;2023-05-24T09:35:57;101434.45;;;20.07;43.34
73624;BME280;61921;53.226;-1.296;2023-05-24T09:38:20;101436.73;;;19.45;42.63
73624;BME280;61921;53.226;-1.296;2023-05-24T09:40:45;101431.60;;;19.22;43.69
73624;BME280;61921;53.226;-1.296;2023-05-24T09:43:10;101426.47;;;19.65;41.42
73624;BME280;61921;53.226;-1.296;2023-05-24T09:45:41;101423.39;;;19.52;41.28
73624;BME280;61921;53.226;-1.296;2023-05-24T09:48:03;101419.19;;;20.28;40.33
73624;BME280;61921;53.226;-1.296;2023-05-24T09:50:26;101426.79;;;20.64;39.45
73624;BME280;61921;53.226;-1.296;2023-05-24T09:52:52;101427.87;;;19.72;40.76
73624;BME280;61921;53.226;-1.296;2023-05-24T09:55:18;101426.68;;;19.65;41.11
73624;BME280;61921;53.226;-1.296;2023-05-24T09:57:42;101419.59;;;20.02;41.45
73624;BME280;61921;53.226;-1.296;2023-05-24T10:00:08;101422.67;;;20.94;39.37
73624;BME280;61921;53.226;-1.296;2023-05-24T10:02:32;101419.35;;;21.42;38.02
73624;BME280;61921;53.226;-1.296;2023-05-24T10:04:58;101413.56;;;21.84;37.41
73624;BME280;61921;53.226;-1.296;2023-05-24T10:07:23;101415.10;;;21.51;37.94
73624;BME280;61921;53.226;-1.296;2023-05-24T10:09:48;101414.73;;;21.24;39.57
73624;BME280;61921;53.226;-1.296;2023-05-24T10:12:13;101420.33;;;20.78;38.14
73624;BME280;61921;53.226;-1.296;2023-05-24T10:14:38;101419.62;;;20.36;38.71
73624;BME280;61921;53.226;-1.296;2023-05-24T10:17:04;101415.72;;;20.10;39.01
73624;BME280;61921;53.226;-1.296;2023-05-24T10:19:28;101416.39;;;20.55;39.93
73624;BME280;61921;53.226;-1.296;2023-05-24T10:21:55;101410.28;;;21.22;38.22
73624;BME280;61921;53.226;-1.296;2023-05-24T10:24:23;101413.39;;;21.02;36.99
73624;BME280;61921;53.226;-1.296;2023-05-24T10:26:45;101410.16;;;20.33;37.84
73624;BME280;61921;53.226;-1.296;2023-05-24T10:29:16;101406.90;;;20.20;38.53
73624;BME280;61921;53.226;-1.296;2023-05-24T10:31:38;101407.37;;;21.09;38.20
73624;BME280;61921;53.226;-1.296;2023-05-24T10:34:02;101406.35;;;20.86;38.50
73624;BME280;61921;53.226;-1.296;2023-05-24T10:36:25;101400.98;;;21.53;36.43
73624;BME280;61921;53.226;-1.296;2023-05-24T10:38:51;101401.93;;;21.44;36.39
73624;BME280;61921;53.226;-1.296;2023-05-24T10:41:17;101398.18;;;21.78;36.66
73624;BME280;61921;53.226;-1.296;2023-05-24T10:43:45;101399.33;;;22.08;35.44
73624;BME280;61921;53.226;-1.296;2023-05-24T10:46:08;101399.10;;;22.17;35.84
73624;BME280;61921;53.226;-1.296;2023-05-24T10:48:32;101400.05;;;21.89;38.26
73624;BME280;61921;53.226;-1.296;2023-05-24T10:50:56;101396.55;;;21.55;37.50
73624;BME280;61921;53.226;-1.296;2023-05-24T10:53:23;101395.10;;;21.63;39.84
73624;BME280;61921;53.226;-1.296;2023-05-24T10:55:55;101397.14;;;21.76;37.37
73624;BME280;61921;53.226;-1.296;2023-05-24T10:58:11;101406.13;;;21.58;37.29
73624;BME280;61921;53.226;-1.296;2023-05-24T11:00:42;101398.66;;;22.19;37.37
73624;BME280;61921;53.226;-1.296;2023-05-24T11:03:02;101395.56;;;21.98;37.82
73624;BME280;61921;53.226;-1.296;2023-05-24T11:05:32;101394.53;;;22.53;37.90
73624;BME280;61921;53.226;-1.296;2023-05-24T11:07:57;101390.12;;;22.34;36.41
73624;BME280;61921;53.226;-1.296;2023-05-24T11:12:42;101400.61;;;21.85;38.43
73624;BME280;61921;53.226;-1.296;2023-05-24T11:15:09;101398.65;;;21.95;38.20
73624;BME280;61921;53.226;-1.296;2023-05-24T11:19:58;101391.72;;;21.90;37.31
73624;BME280;61921;53.226;-1.296;2023-05-24T11:22:23;101395.38;;;21.91;38.15
73624;BME280;61921;53.226;-1.296;2023-05-24T11:24:48;101396.99;;;22.15;38.26
73624;BME280;61921;53.226;-1.296;2023-05-24T11:27:13;101391.15;;;22.50;36.29
73624;BME280;61921;53.226;-1.296;2023-05-24T11:29:40;101387.09;;;22.52;36.53
73624;BME280;61921;53.226;-1.296;2023-05-24T11:32:04;101384.39;;;22.45;37.14
73624;BME280;61921;53.226;-1.296;2023-05-24T11:34:28;101385.85;;;22.66;35.74
73624;BME280;61921;53.226;-1.296;2023-05-24T11:36:54;101387.30;;;22.66;36.00
73624;BME280;61921;53.226;-1.296;2023-05-24T11:39:19;101393.61;;;22.23;36.10
73624;BME280;61921;53.226;-1.296;2023-05-24T11:41:44;101394.76;;;22.63;36.28
73624;BME280;61921;53.226;-1.296;2023-05-24T11:44:10;101404.83;;;22.16;34.94
73624;BME280;61921;53.226;-1.296;2023-05-24T11:46:34;101399.69;;;21.73;35.36
73624;BME280;61921;53.226;-1.296;2023-05-24T11:49:00;101395.54;;;21.72;36.26
73624;BME280;61921;53.226;-1.296;2023-05-24T11:51:26;101396.59;;;21.92;36.38
73624;BME280;61921;53.226;-1.296;2023-05-24T11:53:50;101398.08;;;22.53;35.49
73624;BME280;61921;53.226;-1.296;2023-05-24T11:56:15;101395.94;;;22.44;35.48
73624;BME280;61921;53.226;-1.296;2023-05-24T11:58:46;101395.14;;;22.81;34.61
73624;BME280;61921;53.226;-1.296;2023-05-24T12:01:05;101397.55;;;22.80;35.12
73624;BME280;61921;53.226;-1.296;2023-05-24T12:03:32;101393.66;;;23.06;35.50
73624;BME280;61921;53.226;-1.296;2023-05-24T12:05:56;101386.77;;;23.58;33.84
73624;BME280;61921;53.226;-1.296;2023-05-24T12:08:22;101388.67;;;23.66;34.29
73624;BME280;61921;53.226;-1.296;2023-05-24T12:10:47;101384.75;;;23.23;35.37
73624;BME280;61921;53.226;-1.296;2023-05-24T12:13:20;101381.30;;;22.99;35.04
73624;BME280;61921;53.226;-1.296;2023-05-24T12:15:37;101385.37;;;23.23;35.74
73624;BME280;61921;53.226;-1.296;2023-05-24T12:18:01;101387.30;;;23.26;35.87
73624;BME280;61921;53.226;-1.296;2023-05-24T12:20:27;101381.08;;;23.90;34.78
73624;BME280;61921;53.226;-1.296;2023-05-24T12:22:53;101382.90;;;24.46;34.94
73624;BME280;61921;53.226;-1.296;2023-05-24T12:25:17;101384.09;;;24.69;33.41
73624;BME280;61921;53.226;-1.296;2023-05-24T12:27:42;101384.28;;;24.34;33.14
73624;BME280;61921;53.226;-1.296;2023-05-24T12:30:08;101379.98;;;24.77;33.38
73624;BME280;61921;53.226;-1.296;2023-05-24T12:32:32;101378.65;;;24.94;32.64
73624;BME280;61921;53.226;-1.296;2023-05-24T12:34:57;101376.30;;;25.04;33.94